Time;durP1;ratioP1;P1;durP2;ratioP2;P2;SDS_P1;SDS_P2;PMS_P1;PMS_P2;Temp;Humidity;BMP_temperature;BMP_pressure;BME280_temperature;BME280_humidity;BME280_pressure;Samples;Min_cycle;Max_cycle;Signal;HPM_P1;HPM_P2
2022/09/08 00:01:34;;;;;;;10.03;3.57;;;;;;;14.70;100.00;100577.56;5001284;28;20034;-77
2022/09/08 00:04:03;;;;;;;8.13;4.37;;;;;;;14.67;100.00;100586.03;5010658;28;20032;-77
2022/09/08 00:06:31;;;;;;;9.43;3.63;;;;;;;14.57;100.00;100571.06;5010459;28;20124;-77
2022/09/08 00:08:58;;;;;;;7.53;3.63;;;;;;;14.47;100.00;100575.06;5010722;28;20064;-75
2022/09/08 00:11:30;;;;;;;5.20;3.65;;;;;;;14.49;100.00;100581.94;4991871;28;21273;-76
2022/09/08 00:14:04;;;;;;;7.45;3.08;;;;;;;14.46;100.00;100587.66;5009312;28;20139;-76
2022/09/08 00:16:30;;;;;;;7.40;3.67;;;;;;;14.43;100.00;100597.97;4993644;28;20034;-77
2022/09/08 00:18:55;;;;;;;6.68;3.45;;;;;;;14.33;100.00;100593.75;4992864;28;20513;-76
2022/09/08 00:21:23;;;;;;;7.47;4.00;;;;;;;14.32;100.00;100592.06;5010191;28;20116;-77
2022/09/08 00:23:49;;;;;;;8.68;3.13;;;;;;;14.21;100.00;100576.47;4986904;28;20026;-77
2022/09/08 00:26:19;;;;;;;8.48;3.90;;;;;;;14.18;100.00;100586.75;4988204;28;20120;-77
2022/09/08 00:28:45;;;;;;;6.82;3.65;;;;;;;14.14;100.00;100597.03;4991050;28;20029;-77
2022/09/08 00:31:10;;;;;;;12.38;4.05;;;;;;;14.10;100.00;100596.59;5007387;28;20538;-77
2022/09/08 00:33:36;;;;;;;8.45;3.47;;;;;;;14.07;100.00;100585.38;4988435;28;20118;-75
2022/09/08 00:36:03;;;;;;;4.97;3.27;;;;;;;14.07;100.00;100593.44;5008154;28;20484;-76
2022/09/08 00:38:30;;;;;;;8.90;4.78;;;;;;;14.08;100.00;100593.25;5009236;28;20034;-77
2022/09/08 00:40:57;;;;;;;7.97;3.65;;;;;;;14.08;100.00;100592.44;5007329;28;20590;-77
2022/09/08 00:43:31;;;;;;;10.68;3.65;;;;;;;14.06;100.00;100581.88;5009127;28;20041;-76
2022/09/08 00:46:03;;;;;;;5.82;3.50;;;;;;;14.06;100.00;100584.56;5007735;28;20406;-77
2022/09/08 00:48:29;;;;;;;6.18;2.83;;;;;;;14.09;100.00;100577.97;5007532;28;20061;-76
2022/09/08 00:50:54;;;;;;;7.03;3.20;;;;;;;14.13;100.00;100572.03;5007866;28;20038;-76
2022/09/08 00:53:20;;;;;;;11.90;4.28;;;;;;;14.13;100.00;100555.94;5009100;28;20038;-76
2022/09/08 00:55:46;;;;;;;4.40;3.40;;;;;;;14.11;100.00;100549.09;4988123;28;20072;-77
2022/09/08 00:58:12;;;;;;;5.05;3.28;;;;;;;14.12;100.00;100535.50;4989436;28;20042;-76
2022/09/08 01:00:40;;;;;;;6.50;3.30;;;;;;;14.10;100.00;100534.03;5008726;28;20034;-77
2022/09/08 01:03:09;;;;;;;5.55;3.17;;;;;;;14.09;100.00;100522.47;4999570;28;20288;-76
2022/09/08 01:05:43;;;;;;;12.30;3.58;;;;;;;14.10;100.00;100525.97;5002114;28;20099;-77
2022/09/08 01:14:39;;;;;;;13.93;4.68;;;;;;;14.09;100.00;100481.34;5008709;28;20048;-76
2022/09/08 01:17:20;;;;;;;9.23;3.45;;;;;;;14.09;100.00;100475.97;4998759;28;20061;-76
2022/09/08 01:19:46;;;;;;;6.55;3.03;;;;;;;14.06;100.00;100458.41;5006878;28;20030;-76
2022/09/08 01:22:34;;;;;;;6.57;3.40;;;;;;;14.07;100.00;100456.53;5006939;28;20029;-77
2022/09/08 01:25:11;;;;;;;9.57;3.13;;;;;;;14.04;100.00;100449.72;4983579;28;20051;-76
2022/09/08 01:27:38;;;;;;;7.18;3.25;;;;;;;14.06;100.00;100457.56;5008628;28;20597;-77
2022/09/08 01:30:07;;;;;;;6.20;3.40;;;;;;;14.06;100.00;100444.16;4990226;28;20017;-76
2022/09/08 01:32:39;;;;;;;9.88;3.95;;;;;;;14.06;100.00;100447.66;4999434;28;20053;-76
2022/09/08 01:35:06;;;;;;;8.68;3.33;;;;;;;14.04;100.00;100449.72;5006664;28;20030;-77
2022/09/08 01:37:31;;;;;;;;;;;;;;;14.03;100.00;100466.03;5007476;28;20053;-75
2022/09/08 01:39:57;;;;;;;;;;;;;;;14.05;100.00;100480.09;5023443;28;19964;-76
2022/09/08 01:42:23;;;;;;;6.20;3.22;;;;;;;14.00;100.00;100485.19;5006909;28;19909;-77
2022/09/08 01:44:49;;;;;;;8.35;3.38;;;;;;;13.93;100.00;100485.13;5008088;28;20591;-77
2022/09/08 01:47:14;;;;;;;7.00;3.17;;;;;;;13.94;100.00;100498.34;5006682;28;20124;-77
2022/09/08 01:49:39;;;;;;;4.57;3.17;;;;;;;13.90;100.00;100499.72;4989987;28;20487;-76
2022/09/08 01:52:05;;;;;;;5.80;3.50;;;;;;;13.85;100.00;100495.97;5006168;28;20035;-77
2022/09/08 01:54:30;;;;;;;9.33;3.37;;;;;;;13.85;100.00;100496.78;5008162;28;20091;-75
2022/09/08 01:56:57;;;;;;;7.53;3.50;;;;;;;13.85;100.00;100498.66;5006706;28;20053;-77
2022/09/08 01:59:22;;;;;;;7.22;3.53;;;;;;;13.83;100.00;100498.84;5006302;28;20034;-76
2022/09/08 02:01:48;;;;;;;7.03;3.17;;;;;;;13.81;100.00;100500.88;4983802;28;20531;-77
2022/09/08 02:04:14;;;;;;;5.38;3.72;;;;;;;13.82;100.00;100491.81;5005868;28;20520;-77
2022/09/08 02:06:39;;;;;;;10.03;3.60;;;;;;;13.76;100.00;100487.19;4985308;28;20033;-77
2022/09/08 02:09:05;;;;;;;7.90;3.87;;;;;;;13.83;100.00;100496.16;5004310;28;20506;-77
2022/09/08 02:11:30;;;;;;;4.10;3.03;;;;;;;13.85;100.00;100483.38;5006283;28;20089;-77
2022/09/08 02:13:56;;;;;;;10.82;3.60;;;;;;;13.82;100.00;100475.72;4988557;28;20292;-77
2022/09/08 02:16:21;;;;;;;6.18;3.42;;;;;;;13.86;100.00;100477.00;5004636;28;20064;-76
2022/09/08 02:18:47;;;;;;;10.07;3.40;;;;;;;13.83;100.00;100484.59;5004756;28;20034;-77
2022/09/08 02:21:15;;;;;;;7.03;3.77;;;;;;;13.86;100.00;100477.00;5005719;28;20475;-77
2022/09/08 02:23:42;;;;;;;9.80;3.20;;;;;;;13.87;100.00;100470.59;5004820;28;20021;-77
2022/09/08 02:26:23;;;;;;;10.55;3.42;;;;;;;13.86;100.00;100463.59;5004497;28;20029;-77
2022/09/08 02:28:53;;;;;;;10.52;3.75;;;;;;;13.85;100.00;100464.59;5005685;28;20527;-77
2022/09/08 02:31:19;;;;;;;6.85;4.03;;;;;;;13.84;100.00;100472.84;5005718;28;20042;-76
2022/09/08 02:33:44;;;;;;;5.28;3.30;;;;;;;13.84;100.00;100475.53;5002733;28;20022;-77
2022/09/08 02:36:09;;;;;;;9.13;3.60;;;;;;;13.88;100.00;100477.66;5004830;28;20091;-77
2022/09/08 02:38:35;;;;;;;6.63;3.50;;;;;;;13.93;100.00;100469.03;4985103;28;20029;-77
2022/09/08 02:41:00;;;;;;;26.23;3.90;;;;;;;14.06;100.00;100471.00;5001652;28;20128;-77
2022/09/08 02:43:27;;;;;;;8.73;3.13;;;;;;;14.13;100.00;100461.16;5005607;28;20037;-76
2022/09/08 02:45:52;;;;;;;;;;;;;;;14.18;100.00;100463.25;4999496;28;20041;-76
2022/09/08 02:48:17;;;;;;;;;;;;;;;14.19;100.00;100455.03;5004464;28;19909;-77
2022/09/08 02:50:43;;;;;;;6.97;3.40;;;;;;;14.23;100.00;100445.53;4996869;28;20433;-77
2022/09/08 02:53:09;;;;;;;9.88;3.83;;;;;;;14.19;100.00;100441.59;5006713;28;20037;-77
2022/09/08 02:55:39;;;;;;;7.68;3.47;;;;;;;14.21;100.00;100450.28;5006734;28;20041;-77
2022/09/08 02:58:09;;;;;;;10.02;5.10;;;;;;;14.19;100.00;100452.34;5005591;28;20064;-77
2022/09/08 03:00:36;;;;;;;7.75;3.20;;;;;;;14.21;100.00;100436.88;5006923;28;20030;-76
2022/09/08 03:03:03;;;;;;;8.52;3.85;;;;;;;14.18;100.00;100436.41;5006851;28;20037;-77
2022/09/08 03:05:29;;;;;;;;;;;;;;;14.23;100.00;100437.47;5002790;28;20026;-77
2022/09/08 03:07:55;;;;;;;4.85;3.28;;;;;;;14.19;100.00;100428.19;4992921;28;19917;-76
2022/09/08 03:10:23;;;;;;;4.90;4.00;;;;;;;14.17;100.00;100424.84;5004924;28;20076;-77
2022/09/08 03:12:58;;;;;;;5.65;3.33;;;;;;;14.17;100.00;100430.22;5005398;28;20160;-77
2022/09/08 03:15:25;;;;;;;6.97;3.42;;;;;;;14.17;100.00;100440.97;4988211;28;20038;-77
2022/09/08 03:17:51;;;;;;;11.50;3.88;;;;;;;14.20;100.00;100439.75;4989108;28;20065;-76
2022/09/08 03:20:17;;;;;;;7.13;3.20;;;;;;;14.26;100.00;100445.16;4988035;28;20508;-77
2022/09/08 03:22:42;;;;;;;11.55;3.65;;;;;;;14.28;100.00;100431.53;5005249;28;20557;-77
2022/09/08 03:25:09;;;;;;;7.17;3.77;;;;;;;14.25;100.00;100422.00;5004159;28;20034;-77
2022/09/08 03:27:34;;;;;;;;;;;;;;;14.27;100.00;100422.66;5006918;28;20509;-77
2022/09/08 03:30:00;;;;;;;;;;;;;;;14.23;100.00;100416.00;5004945;28;19917;-76
2022/09/08 03:32:26;;;;;;;;;;;;;;;14.21;100.00;100410.03;4996850;28;19914;-77
2022/09/08 03:34:51;;;;;;;9.13;3.87;;;;;;;14.15;100.00;100397.38;5001643;28;19996;-77
2022/09/08 03:37:16;;;;;;;5.40;3.47;;;;;;;14.14;100.00;100409.09;5004433;28;20044;-77
2022/09/08 03:39:42;;;;;;;6.53;3.90;;;;;;;14.14;100.00;100409.97;4988187;28;20029;-77
2022/09/08 03:42:07;;;;;;;9.13;3.63;;;;;;;14.15;100.00;100403.56;5004926;28;20038;-76
2022/09/08 03:44:33;;;;;;;7.10;4.18;;;;;;;14.17;100.00;100395.31;4985246;28;20038;-76
2022/09/08 03:46:59;;;;;;;11.13;3.97;;;;;;;14.21;100.00;100401.13;4997511;28;20023;-77
2022/09/08 03:49:25;;;;;;;7.72;3.83;;;;;;;14.21;100.00;100387.69;5003885;28;20041;-77
2022/09/08 03:51:51;;;;;;;9.27;3.30;;;;;;;14.22;100.00;100379.44;5004392;28;20022;-76
2022/09/08 03:57:00;;;;;;;7.45;3.83;;;;;;;14.20;100.00;100392.25;5004592;28;20385;-77
2022/09/08 03:59:25;;;;;;;6.03;3.47;;;;;;;14.14;100.00;100393.00;5005384;28;20030;-77
2022/09/08 04:01:51;;;;;;;8.27;3.57;;;;;;;14.09;100.00;100400.81;5004484;28;20487;-76
2022/09/08 04:04:17;;;;;;;8.18;3.90;;;;;;;14.17;100.00;100406.06;5005671;28;20034;-76
2022/09/08 04:06:42;;;;;;;5.77;3.50;;;;;;;14.16;100.00;100404.38;5005847;28;20026;-77
2022/09/08 04:09:08;;;;;;;6.67;3.93;;;;;;;14.21;100.00;100410.03;5004321;28;20036;-77
2022/09/08 04:11:33;;;;;;;8.73;3.53;;;;;;;14.20;100.00;100411.03;5005617;28;20030;-77
2022/09/08 04:13:58;;;;;;;7.17;3.63;;;;;;;14.15;100.00;100406.25;5004761;28;20108;-76
2022/09/08 04:16:24;;;;;;;6.53;3.50;;;;;;;14.12;100.00;100397.75;5004729;28;20034;-76
2022/09/08 04:18:49;;;;;;;6.00;3.03;;;;;;;14.06;100.00;100398.53;5004712;28;20105;-77
2022/09/08 04:21:14;;;;;;;6.97;3.70;;;;;;;14.02;100.00;100408.81;5004727;28;20095;-77
2022/09/08 04:23:40;;;;;;;9.97;4.47;;;;;;;14.01;100.00;100409.03;5004687;28;20018;-77
2022/09/08 04:26:09;;;;;;;8.33;3.97;;;;;;;14.04;100.00;100416.69;5005279;28;20049;-77
2022/09/08 04:28:35;;;;;;;15.50;4.30;;;;;;;14.02;100.00;100414.16;5007983;28;20029;-77
2022/09/08 04:31:05;;;;;;;7.57;3.60;;;;;;;14.14;100.00;100406.41;5008568;28;20218;-77
2022/09/08 04:33:31;;;;;;;8.65;3.55;;;;;;;14.15;100.00;100389.31;5007100;28;20029;-77
2022/09/08 04:35:56;;;;;;;7.15;3.95;;;;;;;14.22;100.00;100371.41;5007792;28;20032;-76
2022/09/08 04:38:22;;;;;;;6.65;3.63;;;;;;;14.29;100.00;100366.06;5009408;28;20037;-77
2022/09/08 04:40:47;;;;;;;7.03;4.40;;;;;;;14.31;100.00;100364.84;4992485;28;20475;-77
2022/09/08 04:43:12;;;;;;;8.93;4.07;;;;;;;14.35;100.00;100346.47;5002262;28;20038;-77
2022/09/08 04:45:38;;;;;;;8.33;4.43;;;;;;;14.40;100.00;100332.47;4991527;28;20461;-78
2022/09/08 04:48:03;;;;;;;10.03;3.90;;;;;;;14.42;100.00;100339.31;5009075;28;20467;-77
2022/09/08 04:50:29;;;;;;;9.03;3.50;;;;;;;14.44;100.00;100328.34;4999239;28;20041;-77
2022/09/08 04:52:54;;;;;;;7.70;3.60;;;;;;;14.51;100.00;100323.84;5008797;28;20022;-77
2022/09/08 04:55:19;;;;;;;4.43;3.20;;;;;;;14.63;100.00;100299.97;5007835;28;20029;-76
2022/09/08 04:57:45;;;;;;;8.57;4.13;;;;;;;14.63;100.00;100291.91;5007565;28;20050;-77
2022/09/08 05:00:12;;;;;;;13.00;3.47;;;;;;;14.63;100.00;100290.03;5008635;28;20096;-77
2022/09/08 05:02:38;;;;;;;6.97;3.35;;;;;;;14.61;100.00;100275.16;5007614;28;20025;-77
2022/09/08 05:05:04;;;;;;;12.55;4.18;;;;;;;14.65;100.00;100279.94;5007045;28;20072;-77
2022/09/08 05:07:30;;;;;;;6.88;3.42;;;;;;;14.68;100.00;100271.50;5031872;23;20040;-75
2022/09/08 05:09:55;;;;;;;5.80;3.33;;;;;;;14.67;100.00;100260.94;5059566;22;20067;-76
2022/09/08 05:12:20;;;;;;;5.73;3.10;;;;;;;14.75;100.00;100261.59;5034181;28;20048;-76
2022/09/08 05:14:46;;;;;;;9.40;3.70;;;;;;;14.80;100.00;100268.19;5041249;28;20449;-76
2022/09/08 06:23:16;;;;;;;10.52;2.90;;;;;;;15.65;100.00;99792.31;5014388;28;20516;-77
2022/09/08 06:25:44;;;;;;;7.73;3.13;;;;;;;15.76;100.00;99815.84;5020077;28;20041;-77
2022/09/08 06:28:28;;;;;;;5.78;2.35;;;;;;;15.94;100.00;99847.38;5017678;28;20276;-77
2022/09/08 06:30:55;;;;;;;11.10;2.60;;;;;;;16.27;100.00;99846.25;4994617;28;20033;-77
2022/09/08 06:33:30;;;;;;;5.57;2.85;;;;;;;16.39;100.00;99836.41;5028521;28;20087;-77
2022/09/08 06:36:05;;;;;;;11.98;2.63;;;;;;;16.61;100.00;99823.31;5024358;28;20033;-77
2022/09/08 06:38:41;;;;;;;4.60;2.35;;;;;;;16.44;100.00;99793.47;5024516;28;20569;-77
2022/09/08 06:41:25;;;;;;;5.55;2.03;;;;;;;16.85;100.00;99887.13;5026766;28;20087;-77
2022/09/08 06:44:01;;;;;;;8.63;2.00;;;;;;;16.98;100.00;99867.28;5026764;28;20067;-77
2022/09/08 06:46:31;;;;;;;6.28;2.85;;;;;;;17.26;100.00;99874.00;5027807;28;20037;-77
2022/09/08 06:48:58;;;;;;;6.95;2.67;;;;;;;17.29;100.00;99809.63;5006802;28;20045;-77
2022/09/08 06:51:47;;;;;;;8.15;2.53;;;;;;;17.23;100.00;99794.38;5026086;28;20497;-77
2022/09/08 06:54:28;;;;;;;5.15;2.58;;;;;;;17.44;100.00;99757.94;5028552;28;20504;-77
2022/09/08 06:57:19;;;;;;;6.63;2.35;;;;;;;17.36;100.00;99760.97;5028097;28;20041;-78
2022/09/08 07:00:00;;;;;;;4.38;2.22;;;;;;;17.23;100.00;99777.34;5012234;28;20421;-77
2022/09/08 07:03:03;;;;;;;7.90;2.90;;;;;;;17.47;100.00;99868.09;5026699;28;20459;-78
2022/09/08 07:05:53;;;;;;;3.65;2.15;;;;;;;17.13;100.00;99748.22;5027136;28;20119;-77
2022/09/08 07:08:43;;;;;;;6.13;2.67;;;;;;;16.70;100.00;99837.34;5026976;28;20183;-77
2022/09/08 07:11:30;;;;;;;9.40;2.47;;;;;;;16.46;100.00;99896.44;5023831;28;20123;-76
2022/09/08 07:14:37;;;;;;;8.80;2.78;;;;;;;16.41;100.00;99969.84;5028552;28;20029;-77
2022/09/08 07:17:18;;;;;;;5.75;2.45;;;;;;;16.41;100.00;100039.88;5026555;28;20038;-78
2022/09/08 07:19:53;;;;;;;7.03;2.30;;;;;;;16.37;100.00;100043.22;5023516;28;20035;-77
2022/09/08 07:22:41;;;;;;;8.25;2.95;;;;;;;16.29;100.00;100019.22;5023809;28;20033;-77
2022/09/08 07:25:13;;;;;;;7.85;3.00;;;;;;;16.28;100.00;100023.81;5022395;28;20037;-77
2022/09/08 07:27:39;;;;;;;7.43;3.05;;;;;;;16.23;100.00;100054.06;5023696;28;20033;-78
2022/09/08 07:30:05;;;;;;;8.97;2.83;;;;;;;16.30;100.00;100032.50;5009673;28;20021;-77
2022/09/08 07:32:34;;;;;;;7.53;3.20;;;;;;;16.13;100.00;100007.09;5026477;28;20038;-78
2022/09/08 07:35:09;;;;;;;9.82;3.40;;;;;;;16.12;100.00;100016.25;5023713;28;20101;-78
2022/09/08 07:37:45;;;;;;;11.50;2.67;;;;;;;15.92;100.00;99960.66;5022068;28;20467;-76
2022/09/08 07:40:19;;;;;;;7.32;2.20;;;;;;;15.91;100.00;99953.59;5027738;28;20532;-76
2022/09/08 07:42:55;;;;;;;7.43;2.95;;;;;;;16.10;100.00;100045.25;5023482;28;20025;-77
2022/09/08 07:45:34;;;;;;;4.22;2.42;;;;;;;16.00;100.00;100043.03;5026493;28;20048;-77
2022/09/08 07:48:23;;;;;;;5.63;2.60;;;;;;;15.87;100.00;99957.75;5043702;28;20033;-77
2022/09/08 07:51:00;;;;;;;10.32;3.40;;;;;;;15.96;100.00;99991.47;5023583;28;20119;-78
2022/09/08 07:53:45;;;;;;;6.30;2.80;;;;;;;16.02;100.00;99997.88;5026304;28;20034;-77
2022/09/08 07:56:20;;;;;;;6.88;2.40;;;;;;;15.84;100.00;99958.22;5007099;28;20033;-77
2022/09/08 07:59:04;;;;;;;9.35;3.22;;;;;;;15.87;100.00;99962.34;5026668;28;20046;-78
2022/09/08 08:01:45;;;;;;;6.90;2.60;;;;;;;15.83;100.00;99935.03;5025962;28;20048;-77
2022/09/08 08:04:36;;;;;;;4.57;2.25;;;;;;;15.91;100.00;100030.84;5036753;28;20053;-77
2022/09/08 08:07:07;;;;;;;5.38;2.38;;;;;;;16.01;100.00;100029.34;5031122;28;20038;-77
2022/09/08 08:09:58;;;;;;;5.13;2.30;;;;;;;15.81;100.00;100001.72;5024640;28;20033;-77
2022/09/08 08:12:43;;;;;;;6.25;2.60;;;;;;;15.77;100.00;100076.66;5029770;28;20087;-77
2022/09/08 08:15:23;;;;;;;4.95;2.80;;;;;;;15.77;100.00;100189.69;5032714;28;20045;-77
2022/09/08 08:17:59;;;;;;;5.95;2.83;;;;;;;15.63;100.00;100198.78;5022936;28;20087;-77
2022/09/08 08:21:15;;;;;;;7.30;2.90;;;;;;;15.71;100.00;100256.97;5029744;28;20037;-77
2022/09/08 08:23:54;;;;;;;9.68;2.78;;;;;;;15.44;100.00;100281.16;4968341;28;20037;-78
2022/09/08 08:26:38;;;;;;;12.75;3.92;;;;;;;15.32;100.00;100385.00;5029228;28;20083;-77
2022/09/08 08:29:33;;;;;;;6.60;2.53;;;;;;;15.26;100.00;100383.13;5032392;28;20033;-77
2022/09/08 08:32:08;;;;;;;9.23;2.72;;;;;;;15.05;100.00;100384.91;5031500;28;20022;-77
2022/09/08 08:34:58;;;;;;;10.88;2.85;;;;;;;15.09;100.00;100369.22;5001085;28;20128;-77
2022/09/08 08:37:29;;;;;;;5.50;2.72;;;;;;;15.22;100.00;100384.56;5010358;28;20045;-77
2022/09/08 08:39:55;;;;;;;8.20;2.75;;;;;;;15.17;100.00;100398.59;5029051;28;20033;-77
2022/09/08 08:42:24;;;;;;;8.57;2.70;;;;;;;15.24;100.00;100455.97;5029176;28;20029;-77
2022/09/08 08:45:18;;;;;;;4.78;2.60;;;;;;;15.01;100.00;100475.06;4997101;28;20402;-77
2022/09/08 08:48:23;;;;;;;6.35;2.92;;;;;;;14.90;100.00;100538.25;5030355;28;20037;-77
2022/09/08 08:50:59;;;;;;;6.22;3.33;;;;;;;14.57;100.00;100571.06;5029178;28;20045;-77
2022/09/08 08:53:48;;;;;;;8.02;3.88;;;;;;;14.66;100.00;100620.13;5030456;28;20033;-77
2022/09/08 08:56:41;;;;;;;8.65;3.67;;;;;;;14.47;100.00;100628.78;5026080;28;20551;-77
2022/09/08 08:59:47;;;;;;;7.40;3.70;;;;;;;14.39;100.00;100612.81;5019429;28;20040;-78
2022/09/08 09:02:25;;;;;;;5.85;3.47;;;;;;;14.26;100.00;100625.06;5031490;28;20108;-78
2022/09/08 09:05:26;;;;;;;7.80;4.07;;;;;;;14.26;100.00;100594.72;5009171;28;20132;-76
2022/09/08 09:08:10;;;;;;;8.50;3.47;;;;;;;14.22;100.00;100583.50;5022452;28;20073;-76
2022/09/08 09:10:42;;;;;;;6.80;3.85;;;;;;;14.30;100.00;100595.97;5025987;28;20044;-77
2022/09/08 09:13:32;;;;;;;4.80;3.80;;;;;;;14.22;100.00;100577.31;5028813;28;20040;-77
2022/09/08 09:16:11;;;;;;;7.28;3.40;;;;;;;14.27;100.00;100558.78;5026012;28;20041;-77
2022/09/08 09:19:26;;;;;;;7.35;3.35;;;;;;;14.36;100.00;100546.88;5002960;28;20029;-77
2022/09/08 09:21:53;;;;;;;7.60;4.13;;;;;;;14.46;100.00;100549.25;5026255;28;20397;-77
2022/09/08 09:24:50;;;;;;;5.60;3.25;;;;;;;14.52;100.00;100564.59;5012362;28;20025;-77
2022/09/08 09:27:29;;;;;;;6.90;4.00;;;;;;;14.71;100.00;100579.25;5025714;28;20041;-78
2022/09/08 09:30:17;;;;;;;8.73;4.57;;;;;;;14.86;100.00;100573.78;5025550;28;20041;-78
2022/09/08 09:33:04;;;;;;;8.68;4.63;;;;;;;14.89;100.00;100557.25;5024255;28;20037;-78
2022/09/08 09:35:45;;;;;;;6.10;3.63;;;;;;;14.85;100.00;100539.88;5020524;28;20064;-77
2022/09/08 09:38:37;;;;;;;7.82;3.95;;;;;;;14.84;100.00;100528.28;5013076;28;20136;-77
2022/09/08 09:41:37;;;;;;;7.65;3.67;;;;;;;14.88;100.00;100523.38;5029725;28;20033;-78
2022/09/08 09:44:22;;;;;;;6.95;3.22;;;;;;;14.98;100.00;100513.06;5039120;28;20052;-76
2022/09/08 09:47:06;;;;;;;8.65;4.00;;;;;;;15.05;100.00;100497.00;5034330;28;20034;-77
2022/09/08 09:49:56;;;;;;;7.00;3.45;;;;;;;15.05;100.00;100494.31;5025511;28;20052;-77
2022/09/08 09:53:03;;;;;;;9.10;3.55;;;;;;;14.96;100.00;100491.78;5028231;28;20485;-78
2022/09/08 09:56:04;;;;;;;7.70;3.65;;;;;;;14.82;100.00;100483.81;5029346;28;20039;-77
2022/09/08 09:58:43;;;;;;;6.82;3.97;;;;;;;14.86;100.00;100514.66;5030483;28;20048;-80
2022/09/08 10:01:31;;;;;;;21.23;6.75;;;;;;;14.80;100.00;100547.69;5034867;28;20037;-81
2022/09/08 10:04:18;;;;;;;9.45;5.32;;;;;;;14.68;100.00;100564.34;5006563;28;20055;-80
2022/09/08 10:07:08;;;;;;;13.10;5.05;;;;;;;14.60;100.00;100580.59;5028951;28;20033;-81
2022/09/08 10:09:59;;;;;;;9.85;5.43;;;;;;;14.51;100.00;100585.22;5011291;28;20030;-81
2022/09/08 10:12:47;;;;;;;10.20;5.65;;;;;;;14.44;100.00;100580.81;5011558;28;20034;-80
2022/09/08 10:15:29;;;;;;;10.63;5.05;;;;;;;14.17;100.00;100558.25;5001041;28;20041;-81
2022/09/08 10:18:36;;;;;;;9.80;5.20;;;;;;;14.17;100.00;100540.28;5012490;28;20041;-81
2022/09/08 10:21:07;;;;;;;11.98;4.75;;;;;;;14.24;100.00;100537.69;5047323;28;20045;-80
2022/09/08 10:23:39;;;;;;;9.38;4.90;;;;;;;14.26;100.00;100520.34;5030240;28;20044;-82
2022/09/08 10:26:35;;;;;;;11.30;4.90;;;;;;;14.26;100.00;100514.97;5032258;28;20055;-81
2022/09/08 10:29:40;;;;;;;8.23;4.18;;;;;;;14.36;100.00;100501.22;5005355;28;20037;-80
2022/09/08 10:32:43;;;;;;;11.43;5.13;;;;;;;14.40;100.00;100496.28;5029209;28;20045;-81
2022/09/08 10:35:37;;;;;;;10.32;4.90;;;;;;;14.50;100.00;100494.13;5028697;28;20482;-79
2022/09/08 10:38:19;;;;;;;10.52;4.85;;;;;;;14.57;100.00;100497.72;5021238;28;20025;-81
2022/09/08 10:41:22;;;;;;;7.28;4.55;;;;;;;14.63;100.00;100504.97;5024323;28;20211;-81
2022/09/08 10:44:16;;;;;;;8.80;4.70;;;;;;;14.66;100.00;100495.72;5029999;28;20037;-81
2022/09/08 10:47:04;;;;;;;9.32;5.20;;;;;;;14.50;100.00;100470.75;5005751;28;20390;-81
2022/09/08 10:49:50;;;;;;;10.52;5.35;;;;;;;14.68;100.00;100453.34;5015200;28;20313;-82
2022/09/08 10:52:45;;;;;;;12.02;5.03;;;;;;;14.67;100.00;100439.09;5013976;28;20063;-81
2022/09/08 10:55:27;;;;;;;8.50;5.47;;;;;;;14.64;100.00;100431.41;5009999;28;20744;-79
2022/09/08 10:58:16;;;;;;;12.00;5.15;;;;;;;14.63;100.00;100410.94;5027715;28;20065;-81
2022/09/08 11:00:57;;;;;;;10.02;5.15;;;;;;;14.85;100.00;100421.63;5008118;28;20038;-80
2022/09/08 11:04:03;;;;;;;7.78;5.22;;;;;;;15.04;100.00;100420.91;5028033;28;20029;-80
2022/09/08 11:06:50;;;;;;;10.32;5.68;;;;;;;15.19;100.00;100402.78;5010688;28;20449;-80
2022/09/08 11:09:39;;;;;;;10.88;5.22;;;;;;;15.15;100.00;100392.63;4996300;28;20199;-80
2022/09/08 11:12:19;;;;;;;11.30;5.03;;;;;;;15.19;100.00;100370.50;5009053;28;20080;-78
2022/09/08 11:15:14;;;;;;;13.05;5.13;;;;;;;15.36;100.00;100362.06;5009177;28;20029;-80
2022/09/08 11:17:47;;;;;;;8.85;4.57;;;;;;;15.32;100.00;100347.38;5043495;28;20603;-79
2022/09/08 11:20:24;;;;;;;7.15;4.78;;;;;;;15.45;100.00;100352.75;5008433;28;20029;-79
2022/09/08 11:23:08;;;;;;;9.75;5.50;;;;;;;15.35;100.00;100346.94;5009228;28;20116;-79
2022/09/08 11:25:59;;;;;;;7.95;5.32;;;;;;;15.38;100.00;100350.06;5005147;28;20029;-78
2022/09/08 11:28:49;;;;;;;11.88;6.38;;;;;;;15.34;100.00;100354.19;5021105;28;20035;-79
2022/09/08 11:31:43;;;;;;;9.55;5.07;;;;;;;15.26;100.00;100348.16;5024635;28;20033;-80
2022/09/08 11:34:33;;;;;;;11.73;6.22;;;;;;;15.26;100.00;100353.53;4996808;28;20034;-80
2022/09/08 11:37:08;;;;;;;12.10;6.35;;;;;;;15.36;100.00;100359.38;5028868;28;20048;-79
2022/09/08 11:39:51;;;;;;;15.57;5.95;;;;;;;15.26;100.00;100358.91;5029488;28;20079;-80
2022/09/08 11:42:17;;;;;;;10.13;6.90;;;;;;;15.27;100.00;100353.34;5015069;28;20032;-78
2022/09/08 11:45:22;;;;;;;13.65;7.72;;;;;;;15.25;100.00;100335.75;5033047;28;20022;-78
2022/09/08 11:48:19;;;;;;;15.27;8.80;;;;;;;15.15;100.00;100352.28;5033172;28;20052;-80
2022/09/08 11:51:09;;;;;;;11.07;7.47;;;;;;;15.15;100.00;100357.66;5022463;28;20394;-78
2022/09/08 11:54:05;;;;;;;13.38;8.43;;;;;;;15.07;100.00;100372.09;5027164;28;20034;-78
2022/09/08 11:57:04;;;;;;;18.00;9.60;;;;;;;14.90;100.00;100355.50;5021431;28;20059;-78
2022/09/08 11:59:42;;;;;;;11.15;8.10;;;;;;;14.91;100.00;100386.72;5016943;28;20034;-77
2022/09/08 12:02:29;;;;;;;10.95;7.68;;;;;;;14.73;100.00;100375.69;5037480;28;20029;-78
2022/09/08 12:05:26;;;;;;;12.43;8.30;;;;;;;14.76;100.00;100377.97;5024286;28;20030;-78
2022/09/08 12:08:22;;;;;;;11.98;7.72;;;;;;;14.54;100.00;100367.31;5033030;28;20075;-77
2022/09/08 12:11:11;;;;;;;11.25;8.25;;;;;;;14.59;100.00;100390.06;5015261;28;20075;-79
2022/09/08 12:14:13;;;;;;;13.48;8.05;;;;;;;14.42;100.00;100393.03;5001667;28;20548;-78
2022/09/08 12:17:05;;;;;;;13.32;8.80;;;;;;;14.40;100.00;100396.91;5034064;28;20037;-79
2022/09/08 12:19:55;;;;;;;12.18;7.95;;;;;;;14.35;100.00;100401.03;5020633;28;20068;-79
2022/09/08 12:22:46;;;;;;;11.65;8.07;;;;;;;14.17;100.00;100399.88;5021403;28;20038;-80
2022/09/08 12:25:40;;;;;;;20.58;9.05;;;;;;;14.43;100.00;100412.66;5000306;28;21069;-79
2022/09/08 12:28:18;;;;;;;15.48;9.73;;;;;;;14.53;100.00;100426.56;5031672;28;20045;-79
2022/09/08 12:31:12;;;;;;;13.18;9.30;;;;;;;14.29;100.00;100423.28;5012293;28;20375;-78
2022/09/08 12:33:57;;;;;;;14.05;8.90;;;;;;;14.16;100.00;100428.53;5000621;28;20033;-80
2022/09/08 12:36:42;;;;;;;16.13;9.13;;;;;;;14.17;100.00;100426.72;5033598;28;20516;-79
2022/09/08 12:39:32;;;;;;;15.35;8.15;;;;;;;14.14;100.00;100422.53;5013226;28;20044;-80
2022/09/08 12:42:14;;;;;;;21.60;9.05;;;;;;;14.14;100.00;100415.34;5011719;28;20060;-80
2022/09/08 12:44:58;;;;;;;14.32;8.82;;;;;;;13.96;100.00;100406.09;5027879;28;20037;-78
2022/09/08 12:47:45;;;;;;;15.18;8.38;;;;;;;13.87;100.00;100397.34;5027166;28;20064;-79
2022/09/08 12:50:46;;;;;;;14.45;9.00;;;;;;;13.83;100.00;100398.72;5000810;28;20410;-79
2022/09/08 12:53:30;;;;;;;15.88;9.48;;;;;;;13.76;100.00;100395.97;5010926;28;20064;-80
2022/09/08 12:56:01;;;;;;;13.10;9.48;;;;;;;13.83;100.00;100396.03;5011986;28;20136;-80
2022/09/08 12:58:36;;;;;;;19.05;9.68;;;;;;;13.72;100.00;100397.41;5027578;28;20120;-79
2022/09/08 13:01:18;;;;;;;19.13;9.68;;;;;;;13.81;100.00;100398.91;5033488;28;20375;-80
2022/09/08 13:03:43;;;;;;;15.68;9.73;;;;;;;13.78;100.00;100390.44;5027327;28;20037;-77
2022/09/08 13:06:30;;;;;;;14.35;9.23;;;;;;;13.84;100.00;100398.56;5033144;28;20022;-80
2022/09/08 13:08:58;;;;;;;15.52;9.95;;;;;;;13.76;100.00;100390.63;5028172;28;20037;-79
2022/09/08 13:11:42;;;;;;;13.82;9.48;;;;;;;13.63;100.00;100377.09;5021116;28;20025;-79
2022/09/08 13:14:09;;;;;;;14.95;9.60;;;;;;;13.66;100.00;100377.53;5027593;28;20048;-79
2022/09/08 13:17:10;;;;;;;15.48;9.10;;;;;;;13.58;100.00;100374.13;5018755;28;20654;-80